Terminal Aerodrome Forecast
Issued by NWS

Current Version | Previous Version | Text Only | Print | Product List | Glossary On
Versions: 1 2 3 4 5 6 7 8 9 10 11 12
000
FTUS44 KLIX 242320
TAFHDC
TAF
KHDC 242320Z 2500/2524 13010KT P6SM SKC
     FM250400 00000KT P6SM SCT025
      TEMPO 2511/2515 BKN010
     FM251500 15005KT P6SM BKN035
     FM251700 15010G18KT P6SM SCT250=

USA.gov is the U.S. government's official web portal to all federal, state and local government web resources and services.